sensor_id;sensor_type;location;lat;lon;timestamp;temperature;humidity
18225;DHT22;9237;48.590;8.854;2023-03-05T00:01:11;1.90;99.90
18225;DHT22;9237;48.590;8.854;2023-03-05T00:03:39;1.90;99.90
18225;DHT22;9237;48.590;8.854;2023-03-05T00:06:06;1.90;99.90
18225;DHT22;9237;48.590;8.854;2023-03-05T00:08:33;1.80;99.90
18225;DHT22;9237;48.590;8.854;2023-03-05T00:11:03;1.80;99.90
18225;DHT22;9237;48.590;8.854;2023-03-05T00:13:31;1.80;99.90
18225;DHT22;9237;48.590;8.854;2023-03-05T00:16:01;1.80;99.90
18225;DHT22;9237;48.590;8.854;2023-03-05T00:18:28;1.80;99.90
18225;DHT22;9237;48.590;8.854;2023-03-05T00:20:55;1.80;99.90
18225;DHT22;9237;48.590;8.854;2023-03-05T00:23:22;1.80;99.90
18225;DHT22;9237;48.590;8.854;2023-03-05T00:25:49;1.80;99.90
18225;DHT22;9237;48.590;8.854;2023-03-05T00:28:15;1.80;99.90
18225;DHT22;9237;48.590;8.854;2023-03-05T00:30:42;1.80;99.90
18225;DHT22;9237;48.590;8.854;2023-03-05T00:33:12;1.80;99.90
18225;DHT22;9237;48.590;8.854;2023-03-05T00:35:39;1.70;99.90
18225;DHT22;9237;48.590;8.854;2023-03-05T00:38:06;1.70;99.90
18225;DHT22;9237;48.590;8.854;2023-03-05T00:40:34;1.70;99.90
18225;DHT22;9237;48.590;8.854;2023-03-05T00:43:01;1.70;99.90
18225;DHT22;9237;48.590;8.854;2023-03-05T00:45:28;1.80;99.90
18225;DHT22;9237;48.590;8.854;2023-03-05T00:47:55;1.70;99.90
18225;DHT22;9237;48.590;8.854;2023-03-05T00:50:23;1.70;99.90
18225;DHT22;9237;48.590;8.854;2023-03-05T00:52:50;1.70;99.90
18225;DHT22;9237;48.590;8.854;2023-03-05T00:57:47;1.80;99.90
18225;DHT22;9237;48.590;8.854;2023-03-05T01:00:15;1.70;99.90
18225;DHT22;9237;48.590;8.854;2023-03-05T01:02:42;1.70;99.90
18225;DHT22;9237;48.590;8.854;2023-03-05T01:05:10;1.70;99.90
18225;DHT22;9237;48.590;8.854;2023-03-05T01:07:38;1.70;99.90
18225;DHT22;9237;48.590;8.854;2023-03-05T01:10:06;1.70;99.90
18225;DHT22;9237;48.590;8.854;2023-03-05T01:12:33;1.70;99.90
18225;DHT22;9237;48.590;8.854;2023-03-05T01:15:00;1.70;99.90
18225;DHT22;9237;48.590;8.854;2023-03-05T01:17:27;1.70;99.90
18225;DHT22;9237;48.590;8.854;2023-03-05T01:19:54;1.70;99.90
18225;DHT22;9237;48.590;8.854;2023-03-05T01:22:21;1.60;99.90
18225;DHT22;9237;48.590;8.854;2023-03-05T01:24:49;1.60;99.90
18225;DHT22;9237;48.590;8.854;2023-03-05T01:27:16;1.60;99.90
18225;DHT22;9237;48.590;8.854;2023-03-05T01:29:42;1.60;99.90
18225;DHT22;9237;48.590;8.854;2023-03-05T01:32:09;1.60;99.90
18225;DHT22;9237;48.590;8.854;2023-03-05T01:34:36;1.60;99.90
18225;DHT22;9237;48.590;8.854;2023-03-05T01:37:03;1.60;99.90
18225;DHT22;9237;48.590;8.854;2023-03-05T01:39:30;1.60;99.90
18225;DHT22;9237;48.590;8.854;2023-03-05T01:41:58;1.60;99.90
18225;DHT22;9237;48.590;8.854;2023-03-05T01:44:28;1.60;99.90
18225;DHT22;9237;48.590;8.854;2023-03-05T01:46:55;1.70;99.90
18225;DHT22;9237;48.590;8.854;2023-03-05T01:49:23;1.60;99.90
18225;DHT22;9237;48.590;8.854;2023-03-05T01:51:56;1.60;99.90
18225;DHT22;9237;48.590;8.854;2023-03-05T01:54:28;1.60;99.90
18225;DHT22;9237;48.590;8.854;2023-03-05T01:57:00;1.60;99.90
18225;DHT22;9237;48.590;8.854;2023-03-05T01:59:30;1.60;99.90
18225;DHT22;9237;48.590;8.854;2023-03-05T02:01:58;1.60;99.90
18225;DHT22;9237;48.590;8.854;2023-03-05T02:04:30;1.50;99.90
18225;DHT22;9237;48.590;8.854;2023-03-05T02:06:58;1.50;99.90
18225;DHT22;9237;48.590;8.854;2023-03-05T02:09:26;1.50;99.90
18225;DHT22;9237;48.590;8.854;2023-03-05T02:11:53;1.50;99.90
18225;DHT22;9237;48.590;8.854;2023-03-05T02:14:21;1.50;99.90
18225;DHT22;9237;48.590;8.854;2023-03-05T02:16:49;1.50;99.90
18225;DHT22;9237;48.590;8.854;2023-03-05T02:19:16;1.50;99.90
18225;DHT22;9237;48.590;8.854;2023-03-05T02:21:46;1.50;99.90
18225;DHT22;9237;48.590;8.854;2023-03-05T02:24:14;1.50;99.90
18225;DHT22;9237;48.590;8.854;2023-03-05T02:26:42;1.50;99.90
18225;DHT22;9237;48.590;8.854;2023-03-05T02:29:13;1.50;99.90
18225;DHT22;9237;48.590;8.854;2023-03-05T02:31:42;1.50;99.90
18225;DHT22;9237;48.590;8.854;2023-03-05T02:34:09;1.50;99.90
18225;DHT22;9237;48.590;8.854;2023-03-05T02:36:36;1.50;99.90
18225;DHT22;9237;48.590;8.854;2023-03-05T02:39:04;1.50;99.90
18225;DHT22;9237;48.590;8.854;2023-03-05T02:41:31;1.50;99.90
18225;DHT22;9237;48.590;8.854;2023-03-05T02:43:58;1.50;99.90
18225;DHT22;9237;48.590;8.854;2023-03-05T02:46:24;1.50;99.90
18225;DHT22;9237;48.590;8.854;2023-03-05T02:48:51;1.40;99.90
18225;DHT22;9237;48.590;8.854;2023-03-05T02:51:18;1.40;99.90
18225;DHT22;9237;48.590;8.854;2023-03-05T02:53:45;1.40;99.90
18225;DHT22;9237;48.590;8.854;2023-03-05T02:56:13;1.40;99.90
18225;DHT22;9237;48.590;8.854;2023-03-05T02:58:40;1.40;99.90
18225;DHT22;9237;48.590;8.854;2023-03-05T03:01:07;1.40;99.90
18225;DHT22;9237;48.590;8.854;2023-03-05T03:03:34;1.40;99.90
18225;DHT22;9237;48.590;8.854;2023-03-05T03:06:01;1.40;99.90
18225;DHT22;9237;48.590;8.854;2023-03-05T03:08:28;1.40;99.90
18225;DHT22;9237;48.590;8.854;2023-03-05T03:10:55;1.40;99.90
18225;DHT22;9237;48.590;8.854;2023-03-05T03:13:23;1.40;99.90
18225;DHT22;9237;48.590;8.854;2023-03-05T03:15:50;1.40;99.90
18225;DHT22;9237;48.590;8.854;2023-03-05T03:18:16;1.40;99.90
18225;DHT22;9237;48.590;8.854;2023-03-05T03:20:43;1.40;99.90
18225;DHT22;9237;48.590;8.854;2023-03-05T03:23:10;1.40;99.90
18225;DHT22;9237;48.590;8.854;2023-03-05T03:25:37;1.40;99.90
18225;DHT22;9237;48.590;8.854;2023-03-05T03:28:03;1.30;99.90
18225;DHT22;9237;48.590;8.854;2023-03-05T03:30:32;1.40;99.90
18225;DHT22;9237;48.590;8.854;2023-03-05T03:32:58;1.40;99.90
18225;DHT22;9237;48.590;8.854;2023-03-05T03:35:25;1.40;99.90
18225;DHT22;9237;48.590;8.854;2023-03-05T03:37:52;1.40;99.90
18225;DHT22;9237;48.590;8.854;2023-03-05T03:40:19;1.40;99.90
18225;DHT22;9237;48.590;8.854;2023-03-05T03:42:45;1.40;99.90
18225;DHT22;9237;48.590;8.854;2023-03-05T03:45:12;1.40;99.90
18225;DHT22;9237;48.590;8.854;2023-03-05T03:47:40;1.40;99.90
18225;DHT22;9237;48.590;8.854;2023-03-05T03:50:08;1.40;99.90
18225;DHT22;9237;48.590;8.854;2023-03-05T03:52:35;1.40;99.90
18225;DHT22;9237;48.590;8.854;2023-03-05T03:55:02;1.40;99.90
18225;DHT22;9237;48.590;8.854;2023-03-05T03:57:30;1.40;99.90
18225;DHT22;9237;48.590;8.854;2023-03-05T03:59:58;1.50;99.90
18225;DHT22;9237;48.590;8.854;2023-03-05T04:02:25;1.50;99.90
18225;DHT22;9237;48.590;8.854;2023-03-05T04:04:53;1.40;99.90
18225;DHT22;9237;48.590;8.854;2023-03-05T04:07:20;1.50;99.90
18225;DHT22;9237;48.590;8.854;2023-03-05T04:09:46;1.50;99.90
18225;DHT22;9237;48.590;8.854;2023-03-05T04:12:13;1.50;99.90
18225;DHT22;9237;48.590;8.854;2023-03-05T04:14:43;1.40;99.90
18225;DHT22;9237;48.590;8.854;2023-03-05T04:17:10;1.50;99.90
18225;DHT22;9237;48.590;8.854;2023-03-05T04:19:37;1.40;99.90
18225;DHT22;9237;48.590;8.854;2023-03-05T04:22:06;1.40;99.90
18225;DHT22;9237;48.590;8.854;2023-03-05T04:24:33;1.40;99.90
18225;DHT22;9237;48.590;8.854;2023-03-05T04:27:00;1.40;99.90
18225;DHT22;9237;48.590;8.854;2023-03-05T04:29:26;1.40;99.90
18225;DHT22;9237;48.590;8.854;2023-03-05T04:31:53;1.40;99.90
18225;DHT22;9237;48.590;8.854;2023-03-05T04:34:20;1.40;99.90
18225;DHT22;9237;48.590;8.854;2023-03-05T04:36:47;1.40;99.90
18225;DHT22;9237;48.590;8.854;2023-03-05T04:39:15;1.40;99.90
18225;DHT22;9237;48.590;8.854;2023-03-05T04:41:42;1.50;99.90
18225;DHT22;9237;48.590;8.854;2023-03-05T04:44:09;1.50;99.90
18225;DHT22;9237;48.590;8.854;2023-03-05T04:46:35;1.50;99.90
18225;DHT22;9237;48.590;8.854;2023-03-05T04:49:02;1.50;99.90
18225;DHT22;9237;48.590;8.854;2023-03-05T04:51:29;1.50;99.90
18225;DHT22;9237;48.590;8.854;2023-03-05T04:53:56;1.50;99.90
18225;DHT22;9237;48.590;8.854;2023-03-05T04:56:24;1.40;99.90
18225;DHT22;9237;48.590;8.854;2023-03-05T04:58:51;1.40;99.90
18225;DHT22;9237;48.590;8.854;2023-03-05T05:01:17;1.40;99.90
18225;DHT22;9237;48.590;8.854;2023-03-05T05:03:44;1.40;99.90
18225;DHT22;9237;48.590;8.854;2023-03-05T05:06:11;1.40;99.90
18225;DHT22;9237;48.590;8.854;2023-03-05T05:08:38;1.40;99.90
18225;DHT22;9237;48.590;8.854;2023-03-05T05:11:06;1.40;99.90
18225;DHT22;9237;48.590;8.854;2023-03-05T05:13:34;1.40;99.90
18225;DHT22;9237;48.590;8.854;2023-03-05T05:16:01;1.40;99.90
18225;DHT22;9237;48.590;8.854;2023-03-05T05:18:28;1.40;99.90
18225;DHT22;9237;48.590;8.854;2023-03-05T05:20:54;1.40;99.90
18225;DHT22;9237;48.590;8.854;2023-03-05T05:23:21;1.30;99.90
18225;DHT22;9237;48.590;8.854;2023-03-05T05:25:55;1.30;99.90
18225;DHT22;9237;48.590;8.854;2023-03-05T05:28:22;1.30;99.90
18225;DHT22;9237;48.590;8.854;2023-03-05T05:30:50;1.30;99.90
18225;DHT22;9237;48.590;8.854;2023-03-05T05:33:17;1.30;99.90
18225;DHT22;9237;48.590;8.854;2023-03-05T05:35:44;1.30;99.90
18225;DHT22;9237;48.590;8.854;2023-03-05T05:38:11;1.30;99.90
18225;DHT22;9237;48.590;8.854;2023-03-05T05:40:37;1.30;99.90
18225;DHT22;9237;48.590;8.854;2023-03-05T05:43:04;1.30;99.90
18225;DHT22;9237;48.590;8.854;2023-03-05T05:45:31;1.30;99.90
18225;DHT22;9237;48.590;8.854;2023-03-05T05:48:00;1.30;99.90
18225;DHT22;9237;48.590;8.854;2023-03-05T05:50:26;1.30;99.90
18225;DHT22;9237;48.590;8.854;2023-03-05T05:52:53;1.20;99.90
18225;DHT22;9237;48.590;8.854;2023-03-05T05:55:20;1.20;99.90
18225;DHT22;9237;48.590;8.854;2023-03-05T05:57:47;1.20;99.90
18225;DHT22;9237;48.590;8.854;2023-03-05T06:00:14;1.30;99.90
18225;DHT22;9237;48.590;8.854;2023-03-05T06:02:41;1.20;99.90
18225;DHT22;9237;48.590;8.854;2023-03-05T06:05:12;1.20;99.90
18225;DHT22;9237;48.590;8.854;2023-03-05T06:07:40;1.20;99.90
18225;DHT22;9237;48.590;8.854;2023-03-05T06:10:08;1.20;99.90
18225;DHT22;9237;48.590;8.854;2023-03-05T06:12:36;1.20;99.90
18225;DHT22;9237;48.590;8.854;2023-03-05T06:15:03;1.20;99.90
18225;DHT22;9237;48.590;8.854;2023-03-05T06:17:30;1.20;99.90
18225;DHT22;9237;48.590;8.854;2023-03-05T06:19:57;1.20;99.90
18225;DHT22;9237;48.590;8.854;2023-03-05T06:22:25;1.20;99.90
18225;DHT22;9237;48.590;8.854;2023-03-05T06:24:52;1.20;99.90
18225;DHT22;9237;48.590;8.854;2023-03-05T06:27:19;1.20;99.90
18225;DHT22;9237;48.590;8.854;2023-03-05T06:29:45;1.20;99.90
18225;DHT22;9237;48.590;8.854;2023-03-05T06:32:12;1.20;99.90
18225;DHT22;9237;48.590;8.854;2023-03-05T06:34:39;1.20;99.90
18225;DHT22;9237;48.590;8.854;2023-03-05T06:37:06;1.20;99.90
18225;DHT22;9237;48.590;8.854;2023-03-05T06:39:34;1.30;99.90
18225;DHT22;9237;48.590;8.854;2023-03-05T06:42:00;1.20;99.90
18225;DHT22;9237;48.590;8.854;2023-03-05T06:44:27;1.20;99.90
18225;DHT22;9237;48.590;8.854;2023-03-05T06:46:54;1.20;99.90
18225;DHT22;9237;48.590;8.854;2023-03-05T06:49:21;1.30;99.90
18225;DHT22;9237;48.590;8.854;2023-03-05T06:51:47;1.30;99.90
18225;DHT22;9237;48.590;8.854;2023-03-05T06:54:16;1.50;99.90
18225;DHT22;9237;48.590;8.854;2023-03-05T06:56:45;1.40;99.90
18225;DHT22;9237;48.590;8.854;2023-03-05T06:59:14;1.40;99.90
18225;DHT22;9237;48.590;8.854;2023-03-05T07:01:41;1.40;99.90
18225;DHT22;9237;48.590;8.854;2023-03-05T07:04:09;1.40;99.90
18225;DHT22;9237;48.590;8.854;2023-03-05T07:06:38;1.40;99.90
18225;DHT22;9237;48.590;8.854;2023-03-05T07:09:07;1.40;99.90
18225;DHT22;9237;48.590;8.854;2023-03-05T07:11:36;1.50;99.90
18225;DHT22;9237;48.590;8.854;2023-03-05T07:14:04;1.60;99.90
18225;DHT22;9237;48.590;8.854;2023-03-05T07:16:32;1.70;99.90
18225;DHT22;9237;48.590;8.854;2023-03-05T07:19:01;1.90;99.90
18225;DHT22;9237;48.590;8.854;2023-03-05T07:21:30;1.90;99.90
18225;DHT22;9237;48.590;8.854;2023-03-05T07:23:59;1.90;99.90
18225;DHT22;9237;48.590;8.854;2023-03-05T07:26:26;2.00;99.90
18225;DHT22;9237;48.590;8.854;2023-03-05T07:28:55;2.10;99.90
18225;DHT22;9237;48.590;8.854;2023-03-05T07:31:24;2.10;99.90
18225;DHT22;9237;48.590;8.854;2023-03-05T07:33:52;2.10;99.90
18225;DHT22;9237;48.590;8.854;2023-03-05T07:36:19;2.20;99.90
18225;DHT22;9237;48.590;8.854;2023-03-05T07:38:45;2.30;99.90
18225;DHT22;9237;48.590;8.854;2023-03-05T07:41:14;2.30;99.90
18225;DHT22;9237;48.590;8.854;2023-03-05T07:43:44;2.30;99.90
18225;DHT22;9237;48.590;8.854;2023-03-05T07:46:14;2.30;99.90
18225;DHT22;9237;48.590;8.854;2023-03-05T07:48:42;2.40;99.90
18225;DHT22;9237;48.590;8.854;2023-03-05T07:51:12;2.40;99.90
18225;DHT22;9237;48.590;8.854;2023-03-05T07:53:40;2.40;99.90
18225;DHT22;9237;48.590;8.854;2023-03-05T07:56:07;2.50;99.90
18225;DHT22;9237;48.590;8.854;2023-03-05T07:58:34;2.50;99.90
18225;DHT22;9237;48.590;8.854;2023-03-05T08:01:01;2.60;99.90
18225;DHT22;9237;48.590;8.854;2023-03-05T08:03:28;2.60;99.90
18225;DHT22;9237;48.590;8.854;2023-03-05T08:05:56;2.70;99.90
18225;DHT22;9237;48.590;8.854;2023-03-05T08:08:23;2.70;99.90
18225;DHT22;9237;48.590;8.854;2023-03-05T08:10:50;2.70;99.90
18225;DHT22;9237;48.590;8.854;2023-03-05T08:13:16;2.70;99.90
18225;DHT22;9237;48.590;8.854;2023-03-05T08:15:43;2.80;99.90
18225;DHT22;9237;48.590;8.854;2023-03-05T08:18:10;2.90;99.90
18225;DHT22;9237;48.590;8.854;2023-03-05T08:20:38;2.90;99.90
18225;DHT22;9237;48.590;8.854;2023-03-05T08:23:06;2.90;99.90
18225;DHT22;9237;48.590;8.854;2023-03-05T08:25:33;3.00;99.90
18225;DHT22;9237;48.590;8.854;2023-03-05T08:28:00;3.10;99.90
18225;DHT22;9237;48.590;8.854;2023-03-05T08:30:26;3.00;99.90
18225;DHT22;9237;48.590;8.854;2023-03-05T08:32:53;3.20;99.90
18225;DHT22;9237;48.590;8.854;2023-03-05T08:35:21;3.20;99.90
18225;DHT22;9237;48.590;8.854;2023-03-05T08:37:48;3.30;99.90
18225;DHT22;9237;48.590;8.854;2023-03-05T08:40:17;3.40;99.90
18225;DHT22;9237;48.590;8.854;2023-03-05T08:42:44;3.50;99.90
18225;DHT22;9237;48.590;8.854;2023-03-05T08:45:11;3.50;99.90
18225;DHT22;9237;48.590;8.854;2023-03-05T08:47:38;3.50;99.90
18225;DHT22;9237;48.590;8.854;2023-03-05T08:50:06;3.60;99.90
18225;DHT22;9237;48.590;8.854;2023-03-05T08:52:33;3.70;99.90
18225;DHT22;9237;48.590;8.854;2023-03-05T08:54:59;3.80;99.90
18225;DHT22;9237;48.590;8.854;2023-03-05T08:57:27;3.80;99.90
18225;DHT22;9237;48.590;8.854;2023-03-05T08:59:54;3.90;99.90
18225;DHT22;9237;48.590;8.854;2023-03-05T09:02:21;3.90;99.90
18225;DHT22;9237;48.590;8.854;2023-03-05T09:04:48;4.00;99.90
18225;DHT22;9237;48.590;8.854;2023-03-05T09:07:14;4.00;99.90
18225;DHT22;9237;48.590;8.854;2023-03-05T09:09:41;4.10;99.90
18225;DHT22;9237;48.590;8.854;2023-03-05T09:12:08;4.00;99.90
18225;DHT22;9237;48.590;8.854;2023-03-05T09:14:39;4.00;99.90
18225;DHT22;9237;48.590;8.854;2023-03-05T09:17:06;4.10;99.90
18225;DHT22;9237;48.590;8.854;2023-03-05T09:19:33;4.30;99.90
18225;DHT22;9237;48.590;8.854;2023-03-05T09:21:59;4.50;99.90
18225;DHT22;9237;48.590;8.854;2023-03-05T09:24:26;4.50;99.90
18225;DHT22;9237;48.590;8.854;2023-03-05T09:26:57;4.60;99.90
18225;DHT22;9237;48.590;8.854;2023-03-05T09:29:24;4.70;99.90
18225;DHT22;9237;48.590;8.854;2023-03-05T09:31:53;4.70;99.90
18225;DHT22;9237;48.590;8.854;2023-03-05T09:34:20;4.80;99.90
18225;DHT22;9237;48.590;8.854;2023-03-05T09:36:47;5.00;99.90
18225;DHT22;9237;48.590;8.854;2023-03-05T09:39:14;5.00;99.90
18225;DHT22;9237;48.590;8.854;2023-03-05T09:42:03;5.10;99.90
18225;DHT22;9237;48.590;8.854;2023-03-05T09:44:39;5.20;99.90
18225;DHT22;9237;48.590;8.854;2023-03-05T09:47:23;5.40;99.90
18225;DHT22;9237;48.590;8.854;2023-03-05T09:49:57;5.60;99.90
18225;DHT22;9237;48.590;8.854;2023-03-05T09:52:33;5.30;99.90
18225;DHT22;9237;48.590;8.854;2023-03-05T09:55:04;5.60;99.90
18225;DHT22;9237;48.590;8.854;2023-03-05T09:57:38;5.90;99.90
18225;DHT22;9237;48.590;8.854;2023-03-05T10:00:22;6.00;99.90
18225;DHT22;9237;48.590;8.854;2023-03-05T10:02:59;6.00;99.90
18225;DHT22;9237;48.590;8.854;2023-03-05T10:05:30;6.10;99.90
18225;DHT22;9237;48.590;8.854;2023-03-05T10:08:03;6.30;99.90
18225;DHT22;9237;48.590;8.854;2023-03-05T10:10:36;6.40;99.90
18225;DHT22;9237;48.590;8.854;2023-03-05T10:13:12;6.60;99.90
18225;DHT22;9237;48.590;8.854;2023-03-05T10:15:45;6.40;99.90
18225;DHT22;9237;48.590;8.854;2023-03-05T10:18:23;6.40;99.90
18225;DHT22;9237;48.590;8.854;2023-03-05T10:20:57;6.60;99.90
18225;DHT22;9237;48.590;8.854;2023-03-05T10:23:29;6.80;99.90
18225;DHT22;9237;48.590;8.854;2023-03-05T10:26:05;6.40;99.90
18225;DHT22;9237;48.590;8.854;2023-03-05T10:28:41;6.20;99.90
18225;DHT22;9237;48.590;8.854;2023-03-05T10:31:19;6.50;99.90
18225;DHT22;9237;48.590;8.854;2023-03-05T10:34:00;6.00;99.90
18225;DHT22;9237;48.590;8.854;2023-03-05T10:36:40;6.10;99.90
18225;DHT22;9237;48.590;8.854;2023-03-05T10:39:41;5.80;99.90
18225;DHT22;9237;48.590;8.854;2023-03-05T10:42:21;6.00;99.90
18225;DHT22;9237;48.590;8.854;2023-03-05T10:44:52;6.10;99.90
18225;DHT22;9237;48.590;8.854;2023-03-05T10:47:23;6.10;99.90
18225;DHT22;9237;48.590;8.854;2023-03-05T10:49:54;6.20;99.90
18225;DHT22;9237;48.590;8.854;2023-03-05T10:52:26;6.30;99.90
18225;DHT22;9237;48.590;8.854;2023-03-05T10:54:54;6.40;99.90
18225;DHT22;9237;48.590;8.854;2023-03-05T10:57:23;6.40;99.90
18225;DHT22;9237;48.590;8.854;2023-03-05T10:59:52;6.30;99.90
18225;DHT22;9237;48.590;8.854;2023-03-05T11:02:19;6.40;99.90
18225;DHT22;9237;48.590;8.854;2023-03-05T11:04:47;6.40;99.90
18225;DHT22;9237;48.590;8.854;2023-03-05T11:07:36;6.30;99.90
18225;DHT22;9237;48.590;8.854;2023-03-05T11:10:18;6.40;99.90
18225;DHT22;9237;48.590;8.854;2023-03-05T11:12:46;6.20;99.90
18225;DHT22;9237;48.590;8.854;2023-03-05T11:15:27;6.20;99.90
18225;DHT22;9237;48.590;8.854;2023-03-05T11:18:14;6.20;99.90
18225;DHT22;9237;48.590;8.854;2023-03-05T11:20:42;6.10;99.90
18225;DHT22;9237;48.590;8.854;2023-03-05T11:23:12;5.90;99.90
18225;DHT22;9237;48.590;8.854;2023-03-05T11:25:57;5.70;99.90
18225;DHT22;9237;48.590;8.854;2023-03-05T11:28:28;5.80;99.90
18225;DHT22;9237;48.590;8.854;2023-03-05T11:31:05;5.70;99.90
18225;DHT22;9237;48.590;8.854;2023-03-05T11:33:34;5.60;99.90
18225;DHT22;9237;48.590;8.854;2023-03-05T11:36:23;5.60;99.90
18225;DHT22;9237;48.590;8.854;2023-03-05T11:38:55;5.60;99.90
18225;DHT22;9237;48.590;8.854;2023-03-05T11:41:30;5.60;99.90
18225;DHT22;9237;48.590;8.854;2023-03-05T11:44:00;5.60;99.90
18225;DHT22;9237;48.590;8.854;2023-03-05T11:46:29;5.70;99.90
18225;DHT22;9237;48.590;8.854;2023-03-05T11:49:02;5.80;99.90
18225;DHT22;9237;48.590;8.854;2023-03-05T11:51:38;5.90;99.90
18225;DHT22;9237;48.590;8.854;2023-03-05T11:54:13;6.00;99.90
18225;DHT22;9237;48.590;8.854;2023-03-05T11:56:42;6.20;99.90
18225;DHT22;9237;48.590;8.854;2023-03-05T11:59:12;6.30;99.90
18225;DHT22;9237;48.590;8.854;2023-03-05T12:01:44;6.30;99.90
18225;DHT22;9237;48.590;8.854;2023-03-05T12:04:11;6.30;99.90
18225;DHT22;9237;48.590;8.854;2023-03-05T12:06:42;6.20;99.90
18225;DHT22;9237;48.590;8.854;2023-03-05T12:09:14;6.20;99.90
18225;DHT22;9237;48.590;8.854;2023-03-05T12:11:44;6.20;99.90
18225;DHT22;9237;48.590;8.854;2023-03-05T12:14:18;6.20;99.90
18225;DHT22;9237;48.590;8.854;2023-03-05T12:16:52;6.30;99.90
18225;DHT22;9237;48.590;8.854;2023-03-05T12:19:45;6.30;99.90
18225;DHT22;9237;48.590;8.854;2023-03-05T12:22:18;6.20;99.90
18225;DHT22;9237;48.590;8.854;2023-03-05T12:24:48;6.20;99.90
18225;DHT22;9237;48.590;8.854;2023-03-05T12:27:32;6.10;99.90
18225;DHT22;9237;48.590;8.854;2023-03-05T12:29:59;6.10;99.90
18225;DHT22;9237;48.590;8.854;2023-03-05T12:32:56;6.30;99.90
18225;DHT22;9237;48.590;8.854;2023-03-05T12:35:36;5.50;99.90
18225;DHT22;9237;48.590;8.854;2023-03-05T12:38:28;4.90;99.90
18225;DHT22;9237;48.590;8.854;2023-03-05T12:41:33;4.90;99.90
18225;DHT22;9237;48.590;8.854;2023-03-05T12:44:20;4.70;99.90
18225;DHT22;9237;48.590;8.854;2023-03-05T12:47:15;4.60;99.90
18225;DHT22;9237;48.590;8.854;2023-03-05T12:49:45;4.40;99.90
18225;DHT22;9237;48.590;8.854;2023-03-05T12:52:21;4.40;99.90
18225;DHT22;9237;48.590;8.854;2023-03-05T12:54:59;4.10;99.90
18225;DHT22;9237;48.590;8.854;2023-03-05T12:57:30;4.20;99.90
18225;DHT22;9237;48.590;8.854;2023-03-05T13:00:00;4.30;99.90
18225;DHT22;9237;48.590;8.854;2023-03-05T13:02:33;4.40;99.90
18225;DHT22;9237;48.590;8.854;2023-03-05T13:05:03;4.40;99.90
18225;DHT22;9237;48.590;8.854;2023-03-05T13:07:30;4.40;99.90
18225;DHT22;9237;48.590;8.854;2023-03-05T13:09:58;4.40;99.90
18225;DHT22;9237;48.590;8.854;2023-03-05T13:12:26;4.50;99.90
18225;DHT22;9237;48.590;8.854;2023-03-05T13:14:58;4.50;99.90
18225;DHT22;9237;48.590;8.854;2023-03-05T13:17:27;4.60;99.90
18225;DHT22;9237;48.590;8.854;2023-03-05T13:19:55;4.50;99.90
18225;DHT22;9237;48.590;8.854;2023-03-05T13:22:22;4.60;99.90
18225;DHT22;9237;48.590;8.854;2023-03-05T13:25:03;4.80;99.90
18225;DHT22;9237;48.590;8.854;2023-03-05T13:27:31;5.00;99.90
18225;DHT22;9237;48.590;8.854;2023-03-05T13:30:00;4.90;99.90
18225;DHT22;9237;48.590;8.854;2023-03-05T13:32:29;5.30;99.90
18225;DHT22;9237;48.590;8.854;2023-03-05T13:34:57;4.90;99.90
18225;DHT22;9237;48.590;8.854;2023-03-05T13:37:26;4.90;99.90
18225;DHT22;9237;48.590;8.854;2023-03-05T13:39:55;4.90;99.90
18225;DHT22;9237;48.590;8.854;2023-03-05T13:42:24;4.70;99.90
18225;DHT22;9237;48.590;8.854;2023-03-05T13:44:54;4.80;99.90
18225;DHT22;9237;48.590;8.854;2023-03-05T13:47:24;4.80;99.90
18225;DHT22;9237;48.590;8.854;2023-03-05T13:49:56;4.70;99.90
18225;DHT22;9237;48.590;8.854;2023-03-05T13:52:26;4.50;99.90
18225;DHT22;9237;48.590;8.854;2023-03-05T13:54:54;4.60;99.90
18225;DHT22;9237;48.590;8.854;2023-03-05T13:57:33;4.80;99.90
18225;DHT22;9237;48.590;8.854;2023-03-05T14:00:01;4.60;99.90
18225;DHT22;9237;48.590;8.854;2023-03-05T14:02:29;4.50;99.90
18225;DHT22;9237;48.590;8.854;2023-03-05T14:04:57;4.80;99.90
18225;DHT22;9237;48.590;8.854;2023-03-05T14:07:31;5.30;99.90
18225;DHT22;9237;48.590;8.854;2023-03-05T14:09:58;4.90;99.90
18225;DHT22;9237;48.590;8.854;2023-03-05T14:12:31;4.70;99.90
18225;DHT22;9237;48.590;8.854;2023-03-05T14:14:59;5.10;99.90
18225;DHT22;9237;48.590;8.854;2023-03-05T14:17:37;4.80;99.90
18225;DHT22;9237;48.590;8.854;2023-03-05T14:20:16;4.80;99.90
18225;DHT22;9237;48.590;8.854;2023-03-05T14:22:46;4.90;99.90
18225;DHT22;9237;48.590;8.854;2023-03-05T14:25:33;4.70;99.90
18225;DHT22;9237;48.590;8.854;2023-03-05T14:28:02;4.80;99.90
18225;DHT22;9237;48.590;8.854;2023-03-05T14:30:29;4.70;99.90
18225;DHT22;9237;48.590;8.854;2023-03-05T14:32:59;4.80;99.90
18225;DHT22;9237;48.590;8.854;2023-03-05T14:35:27;4.90;99.90
18225;DHT22;9237;48.590;8.854;2023-03-05T14:37:57;4.80;99.90
18225;DHT22;9237;48.590;8.854;2023-03-05T14:40:29;4.80;99.90
18225;DHT22;9237;48.590;8.854;2023-03-05T14:42:56;4.80;99.90
18225;DHT22;9237;48.590;8.854;2023-03-05T14:45:26;5.00;99.90
18225;DHT22;9237;48.590;8.854;2023-03-05T14:47:54;5.10;99.90
18225;DHT22;9237;48.590;8.854;2023-03-05T14:50:24;5.20;99.90
18225;DHT22;9237;48.590;8.854;2023-03-05T14:52:54;5.30;99.90
18225;DHT22;9237;48.590;8.854;2023-03-05T14:55:23;5.20;99.90
18225;DHT22;9237;48.590;8.854;2023-03-05T14:57:51;5.30;99.90
18225;DHT22;9237;48.590;8.854;2023-03-05T15:00:23;5.10;99.90
18225;DHT22;9237;48.590;8.854;2023-03-05T15:02:50;5.00;99.90
18225;DHT22;9237;48.590;8.854;2023-03-05T15:05:18;4.80;99.90
18225;DHT22;9237;48.590;8.854;2023-03-05T15:07:47;4.90;99.90
18225;DHT22;9237;48.590;8.854;2023-03-05T15:10:15;4.60;99.90
18225;DHT22;9237;48.590;8.854;2023-03-05T15:12:44;5.30;99.90
18225;DHT22;9237;48.590;8.854;2023-03-05T15:15:13;4.50;99.90
18225;DHT22;9237;48.590;8.854;2023-03-05T15:17:42;4.60;99.90
18225;DHT22;9237;48.590;8.854;2023-03-05T15:20:15;4.60;99.90
18225;DHT22;9237;48.590;8.854;2023-03-05T15:22:42;4.80;99.90
18225;DHT22;9237;48.590;8.854;2023-03-05T15:25:10;4.90;99.90
18225;DHT22;9237;48.590;8.854;2023-03-05T15:27:38;5.10;99.90
18225;DHT22;9237;48.590;8.854;2023-03-05T15:30:07;5.00;99.90
18225;DHT22;9237;48.590;8.854;2023-03-05T15:32:34;4.90;99.90
18225;DHT22;9237;48.590;8.854;2023-03-05T15:35:01;5.00;99.90
18225;DHT22;9237;48.590;8.854;2023-03-05T15:37:28;5.00;99.90
18225;DHT22;9237;48.590;8.854;2023-03-05T15:39:55;4.90;99.90
18225;DHT22;9237;48.590;8.854;2023-03-05T15:42:23;4.80;99.90
18225;DHT22;9237;48.590;8.854;2023-03-05T15:44:49;4.80;99.90
18225;DHT22;9237;48.590;8.854;2023-03-05T15:47:16;4.80;99.90
18225;DHT22;9237;48.590;8.854;2023-03-05T15:49:43;5.00;99.90
18225;DHT22;9237;48.590;8.854;2023-03-05T15:52:10;4.60;99.90
18225;DHT22;9237;48.590;8.854;2023-03-05T15:54:36;4.50;99.90
18225;DHT22;9237;48.590;8.854;2023-03-05T15:57:08;4.40;99.90
18225;DHT22;9237;48.590;8.854;2023-03-05T15:59:37;4.50;99.90
18225;DHT22;9237;48.590;8.854;2023-03-05T16:02:04;4.50;99.90
18225;DHT22;9237;48.590;8.854;2023-03-05T16:04:31;4.50;99.90
18225;DHT22;9237;48.590;8.854;2023-03-05T16:06:59;4.50;99.90
18225;DHT22;9237;48.590;8.854;2023-03-05T16:09:30;4.50;99.90
18225;DHT22;9237;48.590;8.854;2023-03-05T16:11:58;4.70;99.90
18225;DHT22;9237;48.590;8.854;2023-03-05T16:14:26;4.50;99.90
18225;DHT22;9237;48.590;8.854;2023-03-05T16:16:57;4.50;99.90
18225;DHT22;9237;48.590;8.854;2023-03-05T16:19:25;4.50;99.90